sensor_id;sensor_type;location;lat;lon;timestamp;temperature;humidity
14473;DHT22;7322;50.872;4.386;2023-02-22T00:02:11;19.30;99.90
14473;DHT22;7322;50.872;4.386;2023-02-22T00:04:50;19.40;99.90
14473;DHT22;7322;50.872;4.386;2023-02-22T00:07:25;19.30;99.90
14473;DHT22;7322;50.872;4.386;2023-02-22T00:09:59;19.30;99.90
14473;DHT22;7322;50.872;4.386;2023-02-22T00:12:26;19.30;99.90
14473;DHT22;7322;50.872;4.386;2023-02-22T00:15:15;19.30;99.90
14473;DHT22;7322;50.872;4.386;2023-02-22T00:17:50;19.30;99.90
14473;DHT22;7322;50.872;4.386;2023-02-22T00:20:19;19.30;99.90
14473;DHT22;7322;50.872;4.386;2023-02-22T00:22:49;19.30;99.90
14473;DHT22;7322;50.872;4.386;2023-02-22T00:25:20;19.30;99.90
14473;DHT22;7322;50.872;4.386;2023-02-22T00:27:48;19.30;99.90
14473;DHT22;7322;50.872;4.386;2023-02-22T00:30:23;19.30;99.90
14473;DHT22;7322;50.872;4.386;2023-02-22T00:32:52;19.30;99.90
14473;DHT22;7322;50.872;4.386;2023-02-22T00:35:23;19.30;99.90
14473;DHT22;7322;50.872;4.386;2023-02-22T00:37:52;19.30;99.90
14473;DHT22;7322;50.872;4.386;2023-02-22T00:40:22;19.30;99.90
14473;DHT22;7322;50.872;4.386;2023-02-22T00:42:51;19.30;99.90
14473;DHT22;7322;50.872;4.386;2023-02-22T00:45:22;19.30;99.90
14473;DHT22;7322;50.872;4.386;2023-02-22T00:47:55;19.20;99.90
14473;DHT22;7322;50.872;4.386;2023-02-22T00:50:28;19.30;99.90
14473;DHT22;7322;50.872;4.386;2023-02-22T00:52:58;19.30;99.90
14473;DHT22;7322;50.872;4.386;2023-02-22T00:55:27;19.20;99.90
14473;DHT22;7322;50.872;4.386;2023-02-22T00:57:55;19.20;99.90
14473;DHT22;7322;50.872;4.386;2023-02-22T01:00:27;19.20;99.90
14473;DHT22;7322;50.872;4.386;2023-02-22T01:02:54;19.20;99.90
14473;DHT22;7322;50.872;4.386;2023-02-22T01:05:25;19.20;99.90
14473;DHT22;7322;50.872;4.386;2023-02-22T01:07:55;19.20;99.90
14473;DHT22;7322;50.872;4.386;2023-02-22T01:10:26;19.20;99.90
14473;DHT22;7322;50.872;4.386;2023-02-22T01:12:54;19.20;99.90
14473;DHT22;7322;50.872;4.386;2023-02-22T01:15:26;19.20;99.90
14473;DHT22;7322;50.872;4.386;2023-02-22T01:17:56;19.20;99.90
14473;DHT22;7322;50.872;4.386;2023-02-22T01:20:26;19.20;99.90
14473;DHT22;7322;50.872;4.386;2023-02-22T01:22:56;19.20;99.90
14473;DHT22;7322;50.872;4.386;2023-02-22T01:25:25;19.20;99.90
14473;DHT22;7322;50.872;4.386;2023-02-22T01:27:54;19.20;99.90
14473;DHT22;7322;50.872;4.386;2023-02-22T01:30:25;19.20;99.90
14473;DHT22;7322;50.872;4.386;2023-02-22T01:32:56;19.10;99.90
14473;DHT22;7322;50.872;4.386;2023-02-22T01:35:26;19.10;99.90
14473;DHT22;7322;50.872;4.386;2023-02-22T01:37:53;19.20;99.90
14473;DHT22;7322;50.872;4.386;2023-02-22T01:40:24;19.10;99.90
14473;DHT22;7322;50.872;4.386;2023-02-22T01:42:56;19.20;99.90
14473;DHT22;7322;50.872;4.386;2023-02-22T01:45:53;19.20;99.90
14473;DHT22;7322;50.872;4.386;2023-02-22T01:48:27;19.10;99.90
14473;DHT22;7322;50.872;4.386;2023-02-22T01:50:58;19.10;99.90
14473;DHT22;7322;50.872;4.386;2023-02-22T01:53:28;19.10;99.90
14473;DHT22;7322;50.872;4.386;2023-02-22T01:55:57;19.10;99.90
14473;DHT22;7322;50.872;4.386;2023-02-22T01:58:28;19.10;99.90
14473;DHT22;7322;50.872;4.386;2023-02-22T02:01:04;19.10;99.90
14473;DHT22;7322;50.872;4.386;2023-02-22T02:03:36;19.10;99.90
14473;DHT22;7322;50.872;4.386;2023-02-22T02:06:07;19.10;99.90
14473;DHT22;7322;50.872;4.386;2023-02-22T02:08:43;19.10;99.90
14473;DHT22;7322;50.872;4.386;2023-02-22T02:11:14;19.10;99.90
14473;DHT22;7322;50.872;4.386;2023-02-22T02:13:42;19.10;99.90
14473;DHT22;7322;50.872;4.386;2023-02-22T02:16:11;19.10;99.90
14473;DHT22;7322;50.872;4.386;2023-02-22T02:18:40;19.10;99.90
14473;DHT22;7322;50.872;4.386;2023-02-22T02:21:35;19.00;99.90
14473;DHT22;7322;50.872;4.386;2023-02-22T02:24:38;19.10;99.90
14473;DHT22;7322;50.872;4.386;2023-02-22T02:30:57;19.00;99.90
14473;DHT22;7322;50.872;4.386;2023-02-22T02:34:03;19.00;99.90
14473;DHT22;7322;50.872;4.386;2023-02-22T02:43:14;19.00;99.90
14473;DHT22;7322;50.872;4.386;2023-02-22T02:52:41;19.00;99.90
14473;DHT22;7322;50.872;4.386;2023-02-22T02:55:10;19.00;99.90
14473;DHT22;7322;50.872;4.386;2023-02-22T02:57:51;18.90;99.90
14473;DHT22;7322;50.872;4.386;2023-02-22T03:00:51;19.00;99.90
14473;DHT22;7322;50.872;4.386;2023-02-22T03:10:19;18.90;99.90
14473;DHT22;7322;50.872;4.386;2023-02-22T03:20:00;18.90;99.90
14473;DHT22;7322;50.872;4.386;2023-02-22T03:23:05;18.90;99.90
14473;DHT22;7322;50.872;4.386;2023-02-22T03:28:50;18.90;99.90
14473;DHT22;7322;50.872;4.386;2023-02-22T03:31:24;18.90;99.90
14473;DHT22;7322;50.872;4.386;2023-02-22T03:33:55;18.90;99.90
14473;DHT22;7322;50.872;4.386;2023-02-22T03:36:28;18.90;99.90
14473;DHT22;7322;50.872;4.386;2023-02-22T03:38:58;18.90;99.90
14473;DHT22;7322;50.872;4.386;2023-02-22T03:41:31;18.90;99.90
14473;DHT22;7322;50.872;4.386;2023-02-22T03:44:05;18.90;99.90
14473;DHT22;7322;50.872;4.386;2023-02-22T03:46:44;18.90;99.90
14473;DHT22;7322;50.872;4.386;2023-02-22T03:49:17;18.90;99.90
14473;DHT22;7322;50.872;4.386;2023-02-22T03:51:47;18.90;99.90
14473;DHT22;7322;50.872;4.386;2023-02-22T03:54:14;18.90;99.90
14473;DHT22;7322;50.872;4.386;2023-02-22T03:56:47;18.90;99.90
14473;DHT22;7322;50.872;4.386;2023-02-22T03:59:19;18.90;99.90
14473;DHT22;7322;50.872;4.386;2023-02-22T04:02:08;18.80;99.90
14473;DHT22;7322;50.872;4.386;2023-02-22T04:08:23;18.90;99.90
14473;DHT22;7322;50.872;4.386;2023-02-22T04:24:15;18.80;99.90
14473;DHT22;7322;50.872;4.386;2023-02-22T04:26:44;18.80;99.90
14473;DHT22;7322;50.872;4.386;2023-02-22T04:29:17;18.80;99.90
14473;DHT22;7322;50.872;4.386;2023-02-22T04:31:47;18.80;99.90
14473;DHT22;7322;50.872;4.386;2023-02-22T04:37:50;18.90;99.90
14473;DHT22;7322;50.872;4.386;2023-02-22T04:40:20;18.80;99.90
14473;DHT22;7322;50.872;4.386;2023-02-22T04:42:48;18.80;99.90
14473;DHT22;7322;50.872;4.386;2023-02-22T04:45:16;18.80;99.90
14473;DHT22;7322;50.872;4.386;2023-02-22T04:47:45;18.80;99.90
14473;DHT22;7322;50.872;4.386;2023-02-22T04:52:43;18.80;99.90
14473;DHT22;7322;50.872;4.386;2023-02-22T04:55:14;18.80;99.90
14473;DHT22;7322;50.872;4.386;2023-02-22T04:57:44;18.80;99.90
14473;DHT22;7322;50.872;4.386;2023-02-22T05:00:15;18.80;99.90
14473;DHT22;7322;50.872;4.386;2023-02-22T05:02:49;18.80;99.90
14473;DHT22;7322;50.872;4.386;2023-02-22T05:05:22;18.80;99.90
14473;DHT22;7322;50.872;4.386;2023-02-22T05:07:49;18.80;99.90
14473;DHT22;7322;50.872;4.386;2023-02-22T05:10:18;18.80;99.90
14473;DHT22;7322;50.872;4.386;2023-02-22T05:12:47;18.80;99.90
14473;DHT22;7322;50.872;4.386;2023-02-22T05:15:16;18.80;99.90
14473;DHT22;7322;50.872;4.386;2023-02-22T05:17:45;18.80;99.90
14473;DHT22;7322;50.872;4.386;2023-02-22T05:20:20;18.80;99.90
14473;DHT22;7322;50.872;4.386;2023-02-22T05:22:48;18.80;99.90
14473;DHT22;7322;50.872;4.386;2023-02-22T05:25:17;18.80;99.90
14473;DHT22;7322;50.872;4.386;2023-02-22T05:27:54;18.80;99.90
14473;DHT22;7322;50.872;4.386;2023-02-22T05:30:26;18.80;99.90
14473;DHT22;7322;50.872;4.386;2023-02-22T05:32:56;18.80;99.90
14473;DHT22;7322;50.872;4.386;2023-02-22T05:35:26;18.80;99.90
14473;DHT22;7322;50.872;4.386;2023-02-22T05:37:56;18.80;99.90
14473;DHT22;7322;50.872;4.386;2023-02-22T05:40:30;18.80;99.90
14473;DHT22;7322;50.872;4.386;2023-02-22T05:43:00;18.80;99.90
14473;DHT22;7322;50.872;4.386;2023-02-22T05:45:28;18.80;99.90
14473;DHT22;7322;50.872;4.386;2023-02-22T05:48:04;18.80;99.90
14473;DHT22;7322;50.872;4.386;2023-02-22T05:50:31;18.80;99.90
14473;DHT22;7322;50.872;4.386;2023-02-22T05:53:01;18.70;99.90
14473;DHT22;7322;50.872;4.386;2023-02-22T05:55:28;18.80;99.90
14473;DHT22;7322;50.872;4.386;2023-02-22T05:58:02;18.80;99.90
14473;DHT22;7322;50.872;4.386;2023-02-22T06:00:34;18.90;99.90
14473;DHT22;7322;50.872;4.386;2023-02-22T06:03:07;18.90;99.90
14473;DHT22;7322;50.872;4.386;2023-02-22T06:05:35;19.00;99.90
14473;DHT22;7322;50.872;4.386;2023-02-22T06:08:04;19.10;99.90
14473;DHT22;7322;50.872;4.386;2023-02-22T06:10:32;19.10;99.90
14473;DHT22;7322;50.872;4.386;2023-02-22T06:13:02;19.20;99.90
14473;DHT22;7322;50.872;4.386;2023-02-22T06:15:40;19.30;99.90
14473;DHT22;7322;50.872;4.386;2023-02-22T06:18:08;19.40;99.90
14473;DHT22;7322;50.872;4.386;2023-02-22T06:20:35;19.40;99.90
14473;DHT22;7322;50.872;4.386;2023-02-22T06:23:02;19.50;99.90
14473;DHT22;7322;50.872;4.386;2023-02-22T06:25:30;19.60;99.90
14473;DHT22;7322;50.872;4.386;2023-02-22T06:28:00;19.70;99.90
14473;DHT22;7322;50.872;4.386;2023-02-22T06:30:28;19.80;99.90
14473;DHT22;7322;50.872;4.386;2023-02-22T06:32:56;19.80;99.90
14473;DHT22;7322;50.872;4.386;2023-02-22T06:35:30;19.90;99.90
14473;DHT22;7322;50.872;4.386;2023-02-22T06:37:58;20.00;99.90
14473;DHT22;7322;50.872;4.386;2023-02-22T06:40:27;20.00;99.90
14473;DHT22;7322;50.872;4.386;2023-02-22T06:42:55;20.10;99.90
14473;DHT22;7322;50.872;4.386;2023-02-22T06:45:30;20.10;99.90
14473;DHT22;7322;50.872;4.386;2023-02-22T06:47:58;20.20;99.90
14473;DHT22;7322;50.872;4.386;2023-02-22T06:50:29;20.20;99.90
14473;DHT22;7322;50.872;4.386;2023-02-22T06:52:57;20.20;99.90
14473;DHT22;7322;50.872;4.386;2023-02-22T06:55:26;20.20;99.90
14473;DHT22;7322;50.872;4.386;2023-02-22T06:57:55;20.30;99.90
14473;DHT22;7322;50.872;4.386;2023-02-22T07:00:24;20.30;99.90
14473;DHT22;7322;50.872;4.386;2023-02-22T07:02:53;20.30;99.90
14473;DHT22;7322;50.872;4.386;2023-02-22T07:05:27;20.40;99.90
14473;DHT22;7322;50.872;4.386;2023-02-22T07:08:06;20.40;99.90
14473;DHT22;7322;50.872;4.386;2023-02-22T07:10:43;20.40;99.90
14473;DHT22;7322;50.872;4.386;2023-02-22T07:13:11;20.40;99.90
14473;DHT22;7322;50.872;4.386;2023-02-22T07:15:37;20.40;99.90
14473;DHT22;7322;50.872;4.386;2023-02-22T07:18:06;20.40;99.90
14473;DHT22;7322;50.872;4.386;2023-02-22T07:20:33;20.40;99.90
14473;DHT22;7322;50.872;4.386;2023-02-22T07:23:00;20.40;99.90
14473;DHT22;7322;50.872;4.386;2023-02-22T07:25:28;20.40;99.90
14473;DHT22;7322;50.872;4.386;2023-02-22T07:27:55;20.40;99.90
14473;DHT22;7322;50.872;4.386;2023-02-22T07:30:25;20.40;99.90
14473;DHT22;7322;50.872;4.386;2023-02-22T07:32:55;20.40;99.90
14473;DHT22;7322;50.872;4.386;2023-02-22T07:35:26;20.40;99.90
14473;DHT22;7322;50.872;4.386;2023-02-22T07:37:54;20.30;99.90
14473;DHT22;7322;50.872;4.386;2023-02-22T07:40:25;20.30;99.90
14473;DHT22;7322;50.872;4.386;2023-02-22T07:42:54;20.30;99.90
14473;DHT22;7322;50.872;4.386;2023-02-22T07:45:22;20.20;99.90
14473;DHT22;7322;50.872;4.386;2023-02-22T07:47:51;20.20;99.90
14473;DHT22;7322;50.872;4.386;2023-02-22T07:50:19;20.20;99.90
14473;DHT22;7322;50.872;4.386;2023-02-22T07:52:50;20.20;99.90
14473;DHT22;7322;50.872;4.386;2023-02-22T07:55:21;20.10;99.90
14473;DHT22;7322;50.872;4.386;2023-02-22T07:57:51;20.10;99.90
14473;DHT22;7322;50.872;4.386;2023-02-22T08:00:22;20.10;99.90
14473;DHT22;7322;50.872;4.386;2023-02-22T08:02:49;20.10;99.90
14473;DHT22;7322;50.872;4.386;2023-02-22T08:05:17;20.00;99.90
14473;DHT22;7322;50.872;4.386;2023-02-22T08:07:46;20.00;99.90
14473;DHT22;7322;50.872;4.386;2023-02-22T08:10:24;20.00;99.90
14473;DHT22;7322;50.872;4.386;2023-02-22T08:12:51;20.00;99.90
14473;DHT22;7322;50.872;4.386;2023-02-22T08:15:22;19.90;99.90
14473;DHT22;7322;50.872;4.386;2023-02-22T08:17:51;19.90;99.90
14473;DHT22;7322;50.872;4.386;2023-02-22T08:20:26;19.90;99.90
14473;DHT22;7322;50.872;4.386;2023-02-22T08:22:54;19.90;99.90
14473;DHT22;7322;50.872;4.386;2023-02-22T08:25:25;19.90;99.90
14473;DHT22;7322;50.872;4.386;2023-02-22T08:28:01;19.90;99.90
14473;DHT22;7322;50.872;4.386;2023-02-22T08:30:32;19.80;99.90
14473;DHT22;7322;50.872;4.386;2023-02-22T08:33:01;19.80;99.90
14473;DHT22;7322;50.872;4.386;2023-02-22T08:35:31;19.80;99.90
14473;DHT22;7322;50.872;4.386;2023-02-22T08:38:01;19.80;99.90
14473;DHT22;7322;50.872;4.386;2023-02-22T08:40:33;19.80;99.90
14473;DHT22;7322;50.872;4.386;2023-02-22T08:43:06;19.80;99.90
14473;DHT22;7322;50.872;4.386;2023-02-22T08:45:33;19.80;99.90
14473;DHT22;7322;50.872;4.386;2023-02-22T08:48:06;19.70;99.90
14473;DHT22;7322;50.872;4.386;2023-02-22T08:50:50;19.70;99.90
14473;DHT22;7322;50.872;4.386;2023-02-22T08:53:39;19.70;99.90
14473;DHT22;7322;50.872;4.386;2023-02-22T08:56:34;19.70;99.90
14473;DHT22;7322;50.872;4.386;2023-02-22T08:59:01;19.70;99.90
14473;DHT22;7322;50.872;4.386;2023-02-22T09:01:29;19.60;99.90
14473;DHT22;7322;50.872;4.386;2023-02-22T09:04:00;19.70;99.90
14473;DHT22;7322;50.872;4.386;2023-02-22T09:06:27;19.70;99.90
14473;DHT22;7322;50.872;4.386;2023-02-22T09:08:54;19.70;99.90
14473;DHT22;7322;50.872;4.386;2023-02-22T09:11:22;19.70;99.90
14473;DHT22;7322;50.872;4.386;2023-02-22T09:14:02;19.70;99.90
14473;DHT22;7322;50.872;4.386;2023-02-22T09:16:30;19.70;99.90
14473;DHT22;7322;50.872;4.386;2023-02-22T09:19:16;19.70;99.90
14473;DHT22;7322;50.872;4.386;2023-02-22T09:21:53;19.60;99.90
14473;DHT22;7322;50.872;4.386;2023-02-22T09:24:20;19.60;99.90
14473;DHT22;7322;50.872;4.386;2023-02-22T09:27:13;19.60;99.90
14473;DHT22;7322;50.872;4.386;2023-02-22T09:29:53;19.60;99.90
14473;DHT22;7322;50.872;4.386;2023-02-22T09:32:20;19.60;99.90
14473;DHT22;7322;50.872;4.386;2023-02-22T09:34:48;19.60;99.90
14473;DHT22;7322;50.872;4.386;2023-02-22T09:37:16;19.60;99.90
14473;DHT22;7322;50.872;4.386;2023-02-22T09:39:50;19.60;99.90
14473;DHT22;7322;50.872;4.386;2023-02-22T09:42:26;19.60;99.90
14473;DHT22;7322;50.872;4.386;2023-02-22T09:45:05;19.60;99.90
14473;DHT22;7322;50.872;4.386;2023-02-22T09:47:44;19.60;99.90
14473;DHT22;7322;50.872;4.386;2023-02-22T09:50:22;19.50;99.90
14473;DHT22;7322;50.872;4.386;2023-02-22T09:52:53;19.50;99.90
14473;DHT22;7322;50.872;4.386;2023-02-22T09:55:29;19.50;99.90
14473;DHT22;7322;50.872;4.386;2023-02-22T09:58:00;19.50;99.90
14473;DHT22;7322;50.872;4.386;2023-02-22T10:00:31;19.50;99.90
14473;DHT22;7322;50.872;4.386;2023-02-22T10:03:10;19.50;99.90
14473;DHT22;7322;50.872;4.386;2023-02-22T10:05:57;19.50;99.90
14473;DHT22;7322;50.872;4.386;2023-02-22T10:08:33;19.50;99.90
14473;DHT22;7322;50.872;4.386;2023-02-22T10:11:22;19.50;99.90
14473;DHT22;7322;50.872;4.386;2023-02-22T10:17:04;19.50;99.90
14473;DHT22;7322;50.872;4.386;2023-02-22T10:19:42;19.50;99.90
14473;DHT22;7322;50.872;4.386;2023-02-22T10:22:34;19.40;99.90
14473;DHT22;7322;50.872;4.386;2023-02-22T10:25:13;19.40;99.90
14473;DHT22;7322;50.872;4.386;2023-02-22T10:27:46;19.50;99.90
14473;DHT22;7322;50.872;4.386;2023-02-22T10:30:22;19.40;99.90
14473;DHT22;7322;50.872;4.386;2023-02-22T10:32:57;19.50;99.90
14473;DHT22;7322;50.872;4.386;2023-02-22T10:35:33;19.50;99.90
14473;DHT22;7322;50.872;4.386;2023-02-22T10:38:10;19.40;99.90
14473;DHT22;7322;50.872;4.386;2023-02-22T10:40:39;19.50;99.90
14473;DHT22;7322;50.872;4.386;2023-02-22T10:43:10;19.50;99.90
14473;DHT22;7322;50.872;4.386;2023-02-22T10:45:39;19.50;99.90
14473;DHT22;7322;50.872;4.386;2023-02-22T10:48:12;19.50;99.90
14473;DHT22;7322;50.872;4.386;2023-02-22T10:50:42;19.50;99.90
14473;DHT22;7322;50.872;4.386;2023-02-22T10:53:11;19.50;99.90
14473;DHT22;7322;50.872;4.386;2023-02-22T10:58:49;19.50;99.90
14473;DHT22;7322;50.872;4.386;2023-02-22T11:01:23;19.50;99.90
14473;DHT22;7322;50.872;4.386;2023-02-22T11:04:09;19.50;99.90
14473;DHT22;7322;50.872;4.386;2023-02-22T11:06:38;19.50;99.90
14473;DHT22;7322;50.872;4.386;2023-02-22T11:09:12;19.40;99.90
14473;DHT22;7322;50.872;4.386;2023-02-22T11:11:42;19.40;99.90
14473;DHT22;7322;50.872;4.386;2023-02-22T11:14:12;19.40;99.90
14473;DHT22;7322;50.872;4.386;2023-02-22T11:16:43;19.40;99.90
14473;DHT22;7322;50.872;4.386;2023-02-22T11:19:24;19.40;99.90
14473;DHT22;7322;50.872;4.386;2023-02-22T11:21:55;19.40;99.90
14473;DHT22;7322;50.872;4.386;2023-02-22T11:24:28;19.40;99.90
14473;DHT22;7322;50.872;4.386;2023-02-22T11:26:59;19.40;99.90
14473;DHT22;7322;50.872;4.386;2023-02-22T11:29:31;19.40;99.90
14473;DHT22;7322;50.872;4.386;2023-02-22T11:32:01;19.40;99.90
14473;DHT22;7322;50.872;4.386;2023-02-22T11:34:34;19.40;99.90
14473;DHT22;7322;50.872;4.386;2023-02-22T11:37:17;19.40;99.90
14473;DHT22;7322;50.872;4.386;2023-02-22T11:39:47;19.50;99.90
14473;DHT22;7322;50.872;4.386;2023-02-22T11:42:23;19.40;99.90
14473;DHT22;7322;50.872;4.386;2023-02-22T11:45:07;19.40;99.90
14473;DHT22;7322;50.872;4.386;2023-02-22T11:47:35;19.40;99.90
14473;DHT22;7322;50.872;4.386;2023-02-22T11:50:09;19.40;99.90
14473;DHT22;7322;50.872;4.386;2023-02-22T11:52:41;19.40;99.90
14473;DHT22;7322;50.872;4.386;2023-02-22T11:55:20;19.40;99.90
14473;DHT22;7322;50.872;4.386;2023-02-22T11:58:05;19.40;99.90
14473;DHT22;7322;50.872;4.386;2023-02-22T12:00:48;19.40;99.90
14473;DHT22;7322;50.872;4.386;2023-02-22T12:03:27;19.40;99.90
14473;DHT22;7322;50.872;4.386;2023-02-22T12:06:20;19.40;99.90
14473;DHT22;7322;50.872;4.386;2023-02-22T12:09:06;19.40;99.90
14473;DHT22;7322;50.872;4.386;2023-02-22T12:11:41;19.40;99.90
14473;DHT22;7322;50.872;4.386;2023-02-22T12:14:20;19.40;99.90
14473;DHT22;7322;50.872;4.386;2023-02-22T12:20:00;19.50;99.90
14473;DHT22;7322;50.872;4.386;2023-02-22T12:22:35;19.40;99.90
14473;DHT22;7322;50.872;4.386;2023-02-22T12:25:06;19.40;99.90
14473;DHT22;7322;50.872;4.386;2023-02-22T12:27:45;19.40;99.90
14473;DHT22;7322;50.872;4.386;2023-02-22T12:30:18;19.40;99.90
14473;DHT22;7322;50.872;4.386;2023-02-22T12:32:50;19.40;99.90
14473;DHT22;7322;50.872;4.386;2023-02-22T12:35:20;19.40;99.90
14473;DHT22;7322;50.872;4.386;2023-02-22T12:37:59;19.40;99.90
14473;DHT22;7322;50.872;4.386;2023-02-22T12:40:32;19.40;99.90
14473;DHT22;7322;50.872;4.386;2023-02-22T12:43:05;19.40;99.90
14473;DHT22;7322;50.872;4.386;2023-02-22T12:45:40;19.40;99.90
14473;DHT22;7322;50.872;4.386;2023-02-22T12:48:22;19.40;99.90
14473;DHT22;7322;50.872;4.386;2023-02-22T12:50:58;19.50;99.90
14473;DHT22;7322;50.872;4.386;2023-02-22T12:53:32;19.50;99.90
14473;DHT22;7322;50.872;4.386;2023-02-22T12:56:15;19.60;99.90
14473;DHT22;7322;50.872;4.386;2023-02-22T12:58:50;19.60;99.90
14473;DHT22;7322;50.872;4.386;2023-02-22T13:01:43;19.70;99.90
14473;DHT22;7322;50.872;4.386;2023-02-22T13:04:22;19.80;99.90
14473;DHT22;7322;50.872;4.386;2023-02-22T13:07:03;19.80;99.90
14473;DHT22;7322;50.872;4.386;2023-02-22T13:09:53;19.90;99.90
14473;DHT22;7322;50.872;4.386;2023-02-22T13:12:39;20.00;99.90
14473;DHT22;7322;50.872;4.386;2023-02-22T13:15:19;20.10;99.90
14473;DHT22;7322;50.872;4.386;2023-02-22T13:17:53;20.10;99.90
14473;DHT22;7322;50.872;4.386;2023-02-22T13:20:27;20.20;99.90
14473;DHT22;7322;50.872;4.386;2023-02-22T13:22:59;20.20;99.90
14473;DHT22;7322;50.872;4.386;2023-02-22T13:25:35;20.30;99.90
14473;DHT22;7322;50.872;4.386;2023-02-22T13:28:15;20.30;99.90
14473;DHT22;7322;50.872;4.386;2023-02-22T13:30:54;20.40;99.90
14473;DHT22;7322;50.872;4.386;2023-02-22T13:33:35;20.40;99.90
14473;DHT22;7322;50.872;4.386;2023-02-22T13:36:20;20.40;99.90
14473;DHT22;7322;50.872;4.386;2023-02-22T13:39:12;20.40;99.90
14473;DHT22;7322;50.872;4.386;2023-02-22T13:41:58;20.40;99.90
14473;DHT22;7322;50.872;4.386;2023-02-22T13:44:49;20.40;99.90
14473;DHT22;7322;50.872;4.386;2023-02-22T13:47:54;20.40;99.90
14473;DHT22;7322;50.872;4.386;2023-02-22T13:50:48;20.30;99.90
14473;DHT22;7322;50.872;4.386;2023-02-22T13:53:21;20.30;99.90
14473;DHT22;7322;50.872;4.386;2023-02-22T13:55:53;20.30;99.90
14473;DHT22;7322;50.872;4.386;2023-02-22T13:58:25;20.30;99.90
14473;DHT22;7322;50.872;4.386;2023-02-22T14:00:54;20.30;99.90
14473;DHT22;7322;50.872;4.386;2023-02-22T14:03:34;20.20;99.90
14473;DHT22;7322;50.872;4.386;2023-02-22T14:06:06;20.20;99.90
14473;DHT22;7322;50.872;4.386;2023-02-22T14:08:43;20.20;99.90
14473;DHT22;7322;50.872;4.386;2023-02-22T14:14:20;20.20;99.90
14473;DHT22;7322;50.872;4.386;2023-02-22T14:17:19;20.20;99.90
14473;DHT22;7322;50.872;4.386;2023-02-22T14:22:57;20.10;99.90
14473;DHT22;7322;50.872;4.386;2023-02-22T14:25:35;20.10;99.90
14473;DHT22;7322;50.872;4.386;2023-02-22T14:28:06;20.10;99.90
14473;DHT22;7322;50.872;4.386;2023-02-22T14:30:37;20.10;99.90
14473;DHT22;7322;50.872;4.386;2023-02-22T14:36:05;20.00;99.90
14473;DHT22;7322;50.872;4.386;2023-02-22T14:38:33;20.00;99.90
14473;DHT22;7322;50.872;4.386;2023-02-22T14:41:02;20.00;99.90
14473;DHT22;7322;50.872;4.386;2023-02-22T14:43:29;20.00;99.90
14473;DHT22;7322;50.872;4.386;2023-02-22T14:45:59;20.00;99.90
14473;DHT22;7322;50.872;4.386;2023-02-22T14:48:31;19.90;99.90
14473;DHT22;7322;50.872;4.386;2023-02-22T14:51:19;19.90;99.90
14473;DHT22;7322;50.872;4.386;2023-02-22T14:53:55;19.90;99.90
14473;DHT22;7322;50.872;4.386;2023-02-22T14:56:32;19.80;99.90
14473;DHT22;7322;50.872;4.386;2023-02-22T14:59:15;19.80;99.90
14473;DHT22;7322;50.872;4.386;2023-02-22T15:01:46;19.80;99.90
14473;DHT22;7322;50.872;4.386;2023-02-22T15:04:17;19.80;99.90
14473;DHT22;7322;50.872;4.386;2023-02-22T15:06:45;19.80;99.90
14473;DHT22;7322;50.872;4.386;2023-02-22T15:09:14;19.80;99.90
14473;DHT22;7322;50.872;4.386;2023-02-22T15:11:49;19.80;99.90
14473;DHT22;7322;50.872;4.386;2023-02-22T15:14:21;19.80;99.90
14473;DHT22;7322;50.872;4.386;2023-02-22T15:16:53;19.70;99.90
14473;DHT22;7322;50.872;4.386;2023-02-22T15:19:25;19.70;99.90
14473;DHT22;7322;50.872;4.386;2023-02-22T15:21:54;19.70;99.90
14473;DHT22;7322;50.872;4.386;2023-02-22T15:24:23;19.60;99.90
14473;DHT22;7322;50.872;4.386;2023-02-22T15:26:51;19.60;99.90
14473;DHT22;7322;50.872;4.386;2023-02-22T15:29:34;19.60;99.90
14473;DHT22;7322;50.872;4.386;2023-02-22T15:32:17;19.60;99.90
14473;DHT22;7322;50.872;4.386;2023-02-22T15:34:44;19.50;99.90
14473;DHT22;7322;50.872;4.386;2023-02-22T15:37:20;19.50;99.90
14473;DHT22;7322;50.872;4.386;2023-02-22T15:39:49;19.50;99.90
14473;DHT22;7322;50.872;4.386;2023-02-22T15:42:43;19.50;99.90
14473;DHT22;7322;50.872;4.386;2023-02-22T15:45:17;19.40;99.90
14473;DHT22;7322;50.872;4.386;2023-02-22T15:47:48;19.50;99.90
14473;DHT22;7322;50.872;4.386;2023-02-22T15:50:18;19.50;99.90
14473;DHT22;7322;50.872;4.386;2023-02-22T15:52:54;19.50;99.90
14473;DHT22;7322;50.872;4.386;2023-02-22T15:55:27;19.50;99.90
14473;DHT22;7322;50.872;4.386;2023-02-22T15:57:59;19.50;99.90
14473;DHT22;7322;50.872;4.386;2023-02-22T16:00:33;19.50;99.90
14473;DHT22;7322;50.872;4.386;2023-02-22T16:03:05;19.50;99.90
14473;DHT22;7322;50.872;4.386;2023-02-22T16:05:46;19.50;99.90
14473;DHT22;7322;50.872;4.386;2023-02-22T16:08:34;19.50;99.90
14473;DHT22;7322;50.872;4.386;2023-02-22T16:11:04;19.50;99.90
14473;DHT22;7322;50.872;4.386;2023-02-22T16:13:58;19.40;99.90
14473;DHT22;7322;50.872;4.386;2023-02-22T16:16:38;19.40;99.90
14473;DHT22;7322;50.872;4.386;2023-02-22T16:22:27;19.50;99.90
14473;DHT22;7322;50.872;4.386;2023-02-22T16:25:13;19.40;99.90
14473;DHT22;7322;50.872;4.386;2023-02-22T16:27:51;19.40;99.90
14473;DHT22;7322;50.872;4.386;2023-02-22T16:30:43;19.40;99.90
14473;DHT22;7322;50.872;4.386;2023-02-22T16:33:13;19.40;99.90
14473;DHT22;7322;50.872;4.386;2023-02-22T16:35:51;19.40;99.90
14473;DHT22;7322;50.872;4.386;2023-02-22T16:38:21;19.40;99.90
14473;DHT22;7322;50.872;4.386;2023-02-22T16:40:50;19.40;99.90
14473;DHT22;7322;50.872;4.386;2023-02-22T16:43:21;19.40;99.90
14473;DHT22;7322;50.872;4.386;2023-02-22T16:45:49;19.40;99.90
14473;DHT22;7322;50.872;4.386;2023-02-22T16:48:20;19.40;99.90
14473;DHT22;7322;50.872;4.386;2023-02-22T16:50:48;19.40;99.90
14473;DHT22;7322;50.872;4.386;2023-02-22T16:53:16;19.40;99.90
14473;DHT22;7322;50.872;4.386;2023-02-22T16:55:46;19.40;99.90
14473;DHT22;7322;50.872;4.386;2023-02-22T16:58:16;19.40;99.90
14473;DHT22;7322;50.872;4.386;2023-02-22T17:00:43;19.40;99.90
14473;DHT22;7322;50.872;4.386;2023-02-22T17:03:14;19.30;99.90
14473;DHT22;7322;50.872;4.386;2023-02-22T17:05:45;19.40;99.90
14473;DHT22;7322;50.872;4.386;2023-02-22T17:08:13;19.40;99.90
14473;DHT22;7322;50.872;4.386;2023-02-22T17:10:41;19.30;99.90
14473;DHT22;7322;50.872;4.386;2023-02-22T17:13:11;19.30;99.90
14473;DHT22;7322;50.872;4.386;2023-02-22T17:15:38;19.30;99.90
14473;DHT22;7322;50.872;4.386;2023-02-22T17:18:11;19.30;99.90
14473;DHT22;7322;50.872;4.386;2023-02-22T17:20:41;19.40;99.90
14473;DHT22;7322;50.872;4.386;2023-02-22T17:23:10;19.30;99.90
14473;DHT22;7322;50.872;4.386;2023-02-22T17:25:41;19.30;99.90
14473;DHT22;7322;50.872;4.386;2023-02-22T17:28:12;19.30;99.90
14473;DHT22;7322;50.872;4.386;2023-02-22T17:30:39;19.30;99.90
14473;DHT22;7322;50.872;4.386;2023-02-22T17:33:19;19.30;99.90
14473;DHT22;7322;50.872;4.386;2023-02-22T17:35:47;19.30;99.90
14473;DHT22;7322;50.872;4.386;2023-02-22T17:38:21;19.30;99.90
14473;DHT22;7322;50.872;4.386;2023-02-22T17:40:48;19.30;99.90
14473;DHT22;7322;50.872;4.386;2023-02-22T17:43:18;19.30;99.90
14473;DHT22;7322;50.872;4.386;2023-02-22T17:45:46;19.30;99.90